sensor_id;sensor_type;location;lat;lon;timestamp;P1;durP1;ratioP1;P2;durP2;ratioP2
64653;SDS011;51065;48.884;12.598;2023-04-24T00:01:23;3.38;;;1.63;;
64653;SDS011;51065;48.884;12.598;2023-04-24T00:03:49;4.75;;;1.30;;
64653;SDS011;51065;48.884;12.598;2023-04-24T00:06:14;3.38;;;1.30;;
64653;SDS011;51065;48.884;12.598;2023-04-24T00:08:41;3.33;;;1.17;;
64653;SDS011;51065;48.884;12.598;2023-04-24T00:11:07;4.45;;;1.58;;
64653;SDS011;51065;48.884;12.598;2023-04-24T00:13:34;2.40;;;1.13;;
64653;SDS011;51065;48.884;12.598;2023-04-24T00:16:00;2.15;;;1.40;;
64653;SDS011;51065;48.884;12.598;2023-04-24T00:18:25;1.75;;;1.27;;
64653;SDS011;51065;48.884;12.598;2023-04-24T00:20:51;2.33;;;0.98;;
64653;SDS011;51065;48.884;12.598;2023-04-24T00:23:17;4.13;;;1.50;;
64653;SDS011;51065;48.884;12.598;2023-04-24T00:25:42;5.50;;;1.10;;
64653;SDS011;51065;48.884;12.598;2023-04-24T00:28:08;1.55;;;0.95;;
64653;SDS011;51065;48.884;12.598;2023-04-24T00:30:33;4.25;;;1.30;;
64653;SDS011;51065;48.884;12.598;2023-04-24T00:32:59;2.45;;;1.00;;
64653;SDS011;51065;48.884;12.598;2023-04-24T00:35:24;5.30;;;1.08;;
64653;SDS011;51065;48.884;12.598;2023-04-24T00:37:50;1.73;;;1.20;;
64653;SDS011;51065;48.884;12.598;2023-04-24T00:40:16;3.03;;;1.13;;
64653;SDS011;51065;48.884;12.598;2023-04-24T00:42:41;3.65;;;1.30;;
64653;SDS011;51065;48.884;12.598;2023-04-24T00:45:08;2.85;;;1.20;;
64653;SDS011;51065;48.884;12.598;2023-04-24T00:47:34;4.60;;;1.40;;
64653;SDS011;51065;48.884;12.598;2023-04-24T00:50:01;1.90;;;1.00;;
64653;SDS011;51065;48.884;12.598;2023-04-24T00:52:28;2.85;;;1.40;;
64653;SDS011;51065;48.884;12.598;2023-04-24T00:54:56;3.58;;;1.27;;
64653;SDS011;51065;48.884;12.598;2023-04-24T00:57:21;3.88;;;1.52;;
64653;SDS011;51065;48.884;12.598;2023-04-24T00:59:48;3.25;;;1.23;;
64653;SDS011;51065;48.884;12.598;2023-04-24T01:02:15;2.67;;;1.48;;
64653;SDS011;51065;48.884;12.598;2023-04-24T01:04:41;2.90;;;1.45;;
64653;SDS011;51065;48.884;12.598;2023-04-24T01:07:07;7.10;;;1.50;;
64653;SDS011;51065;48.884;12.598;2023-04-24T01:09:36;2.47;;;1.30;;
64653;SDS011;51065;48.884;12.598;2023-04-24T01:12:05;1.77;;;1.23;;
64653;SDS011;51065;48.884;12.598;2023-04-24T01:14:30;4.20;;;1.80;;
64653;SDS011;51065;48.884;12.598;2023-04-24T01:16:56;2.95;;;1.50;;
64653;SDS011;51065;48.884;12.598;2023-04-24T01:19:22;4.15;;;1.45;;
64653;SDS011;51065;48.884;12.598;2023-04-24T01:21:50;3.10;;;1.30;;
64653;SDS011;51065;48.884;12.598;2023-04-24T01:24:18;4.80;;;1.77;;
64653;SDS011;51065;48.884;12.598;2023-04-24T01:26:44;4.93;;;1.63;;
64653;SDS011;51065;48.884;12.598;2023-04-24T01:29:10;2.55;;;1.50;;
64653;SDS011;51065;48.884;12.598;2023-04-24T01:31:36;4.38;;;1.55;;
64653;SDS011;51065;48.884;12.598;2023-04-24T01:34:03;3.67;;;1.75;;
64653;SDS011;51065;48.884;12.598;2023-04-24T01:36:29;3.35;;;1.88;;
64653;SDS011;51065;48.884;12.598;2023-04-24T01:38:56;4.10;;;1.90;;
64653;SDS011;51065;48.884;12.598;2023-04-24T01:41:22;4.05;;;1.90;;
64653;SDS011;51065;48.884;12.598;2023-04-24T01:43:48;5.88;;;2.05;;
64653;SDS011;51065;48.884;12.598;2023-04-24T01:46:14;2.65;;;1.83;;
64653;SDS011;51065;48.884;12.598;2023-04-24T01:48:40;6.00;;;1.77;;
64653;SDS011;51065;48.884;12.598;2023-04-24T01:51:06;4.18;;;1.65;;
64653;SDS011;51065;48.884;12.598;2023-04-24T01:53:32;2.42;;;1.58;;
64653;SDS011;51065;48.884;12.598;2023-04-24T01:55:57;3.28;;;1.70;;
64653;SDS011;51065;48.884;12.598;2023-04-24T01:58:23;3.35;;;1.90;;
64653;SDS011;51065;48.884;12.598;2023-04-24T02:00:49;3.92;;;2.40;;
64653;SDS011;51065;48.884;12.598;2023-04-24T02:03:14;4.32;;;1.92;;
64653;SDS011;51065;48.884;12.598;2023-04-24T02:05:40;3.55;;;1.77;;
64653;SDS011;51065;48.884;12.598;2023-04-24T02:08:09;4.45;;;1.88;;
64653;SDS011;51065;48.884;12.598;2023-04-24T02:10:34;4.10;;;1.85;;
64653;SDS011;51065;48.884;12.598;2023-04-24T02:13:00;4.72;;;1.63;;
64653;SDS011;51065;48.884;12.598;2023-04-24T02:15:26;6.90;;;2.00;;
64653;SDS011;51065;48.884;12.598;2023-04-24T02:17:51;3.55;;;2.00;;
64653;SDS011;51065;48.884;12.598;2023-04-24T02:20:17;6.25;;;2.22;;
64653;SDS011;51065;48.884;12.598;2023-04-24T02:22:42;4.68;;;1.90;;
64653;SDS011;51065;48.884;12.598;2023-04-24T02:25:08;4.03;;;1.60;;
64653;SDS011;51065;48.884;12.598;2023-04-24T02:27:34;4.63;;;1.80;;
64653;SDS011;51065;48.884;12.598;2023-04-24T02:29:59;3.15;;;1.75;;
64653;SDS011;51065;48.884;12.598;2023-04-24T02:32:25;2.05;;;1.45;;
64653;SDS011;51065;48.884;12.598;2023-04-24T02:34:51;3.22;;;1.90;;
64653;SDS011;51065;48.884;12.598;2023-04-24T02:37:16;3.92;;;1.95;;
64653;SDS011;51065;48.884;12.598;2023-04-24T02:39:42;3.55;;;1.70;;
64653;SDS011;51065;48.884;12.598;2023-04-24T02:42:07;4.93;;;2.35;;
64653;SDS011;51065;48.884;12.598;2023-04-24T02:44:33;3.55;;;1.90;;
64653;SDS011;51065;48.884;12.598;2023-04-24T02:46:58;3.05;;;1.80;;
64653;SDS011;51065;48.884;12.598;2023-04-24T02:49:24;5.30;;;1.98;;
64653;SDS011;51065;48.884;12.598;2023-04-24T02:51:50;4.30;;;2.20;;
64653;SDS011;51065;48.884;12.598;2023-04-24T02:54:16;3.85;;;1.63;;
64653;SDS011;51065;48.884;12.598;2023-04-24T02:56:41;2.50;;;1.73;;
64653;SDS011;51065;48.884;12.598;2023-04-24T02:59:07;4.82;;;2.10;;
64653;SDS011;51065;48.884;12.598;2023-04-24T03:01:33;3.35;;;2.17;;
64653;SDS011;51065;48.884;12.598;2023-04-24T03:03:58;3.92;;;1.90;;
64653;SDS011;51065;48.884;12.598;2023-04-24T03:06:24;5.97;;;2.03;;
64653;SDS011;51065;48.884;12.598;2023-04-24T03:08:49;4.43;;;1.80;;
64653;SDS011;51065;48.884;12.598;2023-04-24T03:11:15;3.10;;;1.80;;
64653;SDS011;51065;48.884;12.598;2023-04-24T03:13:40;4.53;;;1.88;;
64653;SDS011;51065;48.884;12.598;2023-04-24T03:16:06;4.88;;;2.10;;
64653;SDS011;51065;48.884;12.598;2023-04-24T03:18:31;7.10;;;2.22;;
64653;SDS011;51065;48.884;12.598;2023-04-24T03:20:57;4.18;;;1.98;;
64653;SDS011;51065;48.884;12.598;2023-04-24T03:23:22;4.88;;;2.00;;
64653;SDS011;51065;48.884;12.598;2023-04-24T03:25:48;3.25;;;2.10;;
64653;SDS011;51065;48.884;12.598;2023-04-24T03:28:13;3.00;;;1.88;;
64653;SDS011;51065;48.884;12.598;2023-04-24T03:30:39;4.53;;;2.40;;
64653;SDS011;51065;48.884;12.598;2023-04-24T03:33:05;4.50;;;1.98;;
64653;SDS011;51065;48.884;12.598;2023-04-24T03:35:30;4.00;;;2.20;;
64653;SDS011;51065;48.884;12.598;2023-04-24T03:37:56;3.97;;;2.08;;
64653;SDS011;51065;48.884;12.598;2023-04-24T03:40:22;2.83;;;1.73;;
64653;SDS011;51065;48.884;12.598;2023-04-24T03:42:47;2.72;;;1.65;;
64653;SDS011;51065;48.884;12.598;2023-04-24T03:45:13;4.10;;;2.45;;
64653;SDS011;51065;48.884;12.598;2023-04-24T03:47:38;4.82;;;1.80;;
64653;SDS011;51065;48.884;12.598;2023-04-24T03:50:04;4.82;;;2.03;;
64653;SDS011;51065;48.884;12.598;2023-04-24T03:52:30;5.60;;;1.98;;
64653;SDS011;51065;48.884;12.598;2023-04-24T03:54:56;4.00;;;1.77;;
64653;SDS011;51065;48.884;12.598;2023-04-24T03:57:21;3.90;;;1.92;;
64653;SDS011;51065;48.884;12.598;2023-04-24T03:59:47;3.05;;;1.70;;
64653;SDS011;51065;48.884;12.598;2023-04-24T04:02:12;2.63;;;1.70;;
64653;SDS011;51065;48.884;12.598;2023-04-24T04:04:38;4.70;;;1.95;;
64653;SDS011;51065;48.884;12.598;2023-04-24T04:07:03;5.63;;;1.95;;
64653;SDS011;51065;48.884;12.598;2023-04-24T04:09:30;4.85;;;1.98;;
64653;SDS011;51065;48.884;12.598;2023-04-24T04:11:56;3.63;;;1.90;;
64653;SDS011;51065;48.884;12.598;2023-04-24T04:14:22;4.75;;;1.88;;
64653;SDS011;51065;48.884;12.598;2023-04-24T04:16:48;5.28;;;1.90;;
64653;SDS011;51065;48.884;12.598;2023-04-24T04:19:13;2.33;;;1.42;;
64653;SDS011;51065;48.884;12.598;2023-04-24T04:21:39;2.90;;;1.75;;
64653;SDS011;51065;48.884;12.598;2023-04-24T04:24:04;4.60;;;1.95;;
64653;SDS011;51065;48.884;12.598;2023-04-24T04:26:32;3.38;;;1.60;;
64653;SDS011;51065;48.884;12.598;2023-04-24T04:28:58;4.38;;;1.77;;
64653;SDS011;51065;48.884;12.598;2023-04-24T04:31:25;2.95;;;1.73;;
64653;SDS011;51065;48.884;12.598;2023-04-24T04:33:51;2.30;;;1.63;;
64653;SDS011;51065;48.884;12.598;2023-04-24T04:36:16;4.20;;;1.90;;
64653;SDS011;51065;48.884;12.598;2023-04-24T04:38:43;4.13;;;1.95;;
64653;SDS011;51065;48.884;12.598;2023-04-24T04:41:09;3.80;;;1.80;;
64653;SDS011;51065;48.884;12.598;2023-04-24T04:43:35;4.57;;;1.95;;
64653;SDS011;51065;48.884;12.598;2023-04-24T04:46:01;2.90;;;1.60;;
64653;SDS011;51065;48.884;12.598;2023-04-24T04:48:28;3.92;;;2.28;;
64653;SDS011;51065;48.884;12.598;2023-04-24T04:50:53;4.13;;;1.85;;
64653;SDS011;51065;48.884;12.598;2023-04-24T04:53:19;5.00;;;1.77;;
64653;SDS011;51065;48.884;12.598;2023-04-24T04:55:45;7.80;;;2.10;;
64653;SDS011;51065;48.884;12.598;2023-04-24T04:58:11;4.40;;;1.67;;
64653;SDS011;51065;48.884;12.598;2023-04-24T05:00:37;4.53;;;1.50;;
64653;SDS011;51065;48.884;12.598;2023-04-24T05:03:02;4.22;;;1.75;;
64653;SDS011;51065;48.884;12.598;2023-04-24T05:05:28;3.72;;;1.77;;
64653;SDS011;51065;48.884;12.598;2023-04-24T05:07:54;3.05;;;1.80;;
64653;SDS011;51065;48.884;12.598;2023-04-24T05:10:19;2.85;;;1.83;;
64653;SDS011;51065;48.884;12.598;2023-04-24T05:12:45;4.82;;;1.67;;
64653;SDS011;51065;48.884;12.598;2023-04-24T05:15:10;3.20;;;1.52;;
64653;SDS011;51065;48.884;12.598;2023-04-24T05:17:36;3.30;;;1.75;;
64653;SDS011;51065;48.884;12.598;2023-04-24T05:20:02;7.65;;;1.90;;
64653;SDS011;51065;48.884;12.598;2023-04-24T05:22:30;3.67;;;2.03;;
64653;SDS011;51065;48.884;12.598;2023-04-24T05:24:56;5.53;;;1.80;;
64653;SDS011;51065;48.884;12.598;2023-04-24T05:27:22;3.05;;;1.65;;
64653;SDS011;51065;48.884;12.598;2023-04-24T05:29:47;4.60;;;2.00;;
64653;SDS011;51065;48.884;12.598;2023-04-24T05:32:13;3.17;;;1.50;;
64653;SDS011;51065;48.884;12.598;2023-04-24T05:34:39;4.15;;;1.50;;
64653;SDS011;51065;48.884;12.598;2023-04-24T05:37:04;3.42;;;1.73;;
64653;SDS011;51065;48.884;12.598;2023-04-24T05:39:33;3.78;;;1.77;;
64653;SDS011;51065;48.884;12.598;2023-04-24T05:42:00;4.30;;;1.80;;
64653;SDS011;51065;48.884;12.598;2023-04-24T05:44:26;3.70;;;1.30;;
64653;SDS011;51065;48.884;12.598;2023-04-24T05:46:52;6.45;;;1.70;;
64653;SDS011;51065;48.884;12.598;2023-04-24T05:49:18;3.50;;;1.70;;
64653;SDS011;51065;48.884;12.598;2023-04-24T05:51:43;4.57;;;2.10;;
64653;SDS011;51065;48.884;12.598;2023-04-24T05:54:09;3.05;;;1.60;;
64653;SDS011;51065;48.884;12.598;2023-04-24T05:56:37;3.88;;;1.35;;
64653;SDS011;51065;48.884;12.598;2023-04-24T05:59:02;4.72;;;1.50;;
64653;SDS011;51065;48.884;12.598;2023-04-24T06:01:28;3.22;;;1.23;;
64653;SDS011;51065;48.884;12.598;2023-04-24T06:03:54;2.55;;;1.40;;
64653;SDS011;51065;48.884;12.598;2023-04-24T06:06:20;3.17;;;1.30;;
64653;SDS011;51065;48.884;12.598;2023-04-24T06:08:45;5.95;;;1.70;;
64653;SDS011;51065;48.884;12.598;2023-04-24T06:11:11;3.00;;;1.63;;
64653;SDS011;51065;48.884;12.598;2023-04-24T06:13:36;2.30;;;1.27;;
64653;SDS011;51065;48.884;12.598;2023-04-24T06:16:02;2.03;;;1.23;;
64653;SDS011;51065;48.884;12.598;2023-04-24T06:18:28;1.90;;;1.40;;
64653;SDS011;51065;48.884;12.598;2023-04-24T06:20:53;2.80;;;1.15;;
64653;SDS011;51065;48.884;12.598;2023-04-24T06:23:20;2.08;;;1.10;;
64653;SDS011;51065;48.884;12.598;2023-04-24T06:25:45;3.10;;;1.50;;
64653;SDS011;51065;48.884;12.598;2023-04-24T06:28:11;1.70;;;1.20;;
64653;SDS011;51065;48.884;12.598;2023-04-24T06:30:37;3.55;;;1.33;;
64653;SDS011;51065;48.884;12.598;2023-04-24T06:33:02;2.05;;;1.27;;
64653;SDS011;51065;48.884;12.598;2023-04-24T06:35:28;6.70;;;2.20;;
64653;SDS011;51065;48.884;12.598;2023-04-24T06:37:53;3.72;;;1.10;;
64653;SDS011;51065;48.884;12.598;2023-04-24T06:40:21;3.95;;;0.90;;
64653;SDS011;51065;48.884;12.598;2023-04-24T06:42:46;2.55;;;0.90;;
64653;SDS011;51065;48.884;12.598;2023-04-24T06:45:12;5.07;;;2.88;;
64653;SDS011;51065;48.884;12.598;2023-04-24T06:47:37;7.07;;;1.35;;
64653;SDS011;51065;48.884;12.598;2023-04-24T06:50:03;3.05;;;1.08;;
64653;SDS011;51065;48.884;12.598;2023-04-24T06:52:29;2.38;;;1.30;;
64653;SDS011;51065;48.884;12.598;2023-04-24T06:55:03;4.10;;;1.33;;
64653;SDS011;51065;48.884;12.598;2023-04-24T06:57:30;3.35;;;1.50;;
64653;SDS011;51065;48.884;12.598;2023-04-24T06:59:56;4.40;;;1.20;;
64653;SDS011;51065;48.884;12.598;2023-04-24T07:02:21;2.45;;;0.90;;
64653;SDS011;51065;48.884;12.598;2023-04-24T07:04:47;1.88;;;1.10;;
64653;SDS011;51065;48.884;12.598;2023-04-24T07:07:13;1.27;;;0.82;;
64653;SDS011;51065;48.884;12.598;2023-04-24T07:09:39;2.53;;;0.85;;
64653;SDS011;51065;48.884;12.598;2023-04-24T07:12:07;2.85;;;1.38;;
64653;SDS011;51065;48.884;12.598;2023-04-24T07:14:35;1.73;;;0.95;;
64653;SDS011;51065;48.884;12.598;2023-04-24T07:17:02;1.83;;;1.10;;
64653;SDS011;51065;48.884;12.598;2023-04-24T07:19:28;1.20;;;1.08;;
64653;SDS011;51065;48.884;12.598;2023-04-24T07:21:54;3.00;;;1.00;;
64653;SDS011;51065;48.884;12.598;2023-04-24T07:24:20;1.15;;;0.80;;
64653;SDS011;51065;48.884;12.598;2023-04-24T07:26:45;2.63;;;1.13;;
64653;SDS011;51065;48.884;12.598;2023-04-24T07:29:11;1.95;;;1.05;;
64653;SDS011;51065;48.884;12.598;2023-04-24T07:31:37;0.88;;;0.80;;
64653;SDS011;51065;48.884;12.598;2023-04-24T07:34:03;1.95;;;1.00;;
64653;SDS011;51065;48.884;12.598;2023-04-24T07:36:29;2.97;;;0.90;;
64653;SDS011;51065;48.884;12.598;2023-04-24T07:38:55;1.83;;;0.88;;
64653;SDS011;51065;48.884;12.598;2023-04-24T07:41:21;2.30;;;0.80;;
64653;SDS011;51065;48.884;12.598;2023-04-24T07:43:47;3.15;;;1.05;;
64653;SDS011;51065;48.884;12.598;2023-04-24T07:46:13;4.50;;;1.00;;
64653;SDS011;51065;48.884;12.598;2023-04-24T07:48:38;3.70;;;0.82;;
64653;SDS011;51065;48.884;12.598;2023-04-24T07:51:04;2.33;;;0.90;;
64653;SDS011;51065;48.884;12.598;2023-04-24T07:53:29;2.45;;;1.10;;
64653;SDS011;51065;48.884;12.598;2023-04-24T07:55:55;2.78;;;1.40;;
64653;SDS011;51065;48.884;12.598;2023-04-24T07:58:21;3.00;;;1.00;;
64653;SDS011;51065;48.884;12.598;2023-04-24T08:00:46;1.55;;;1.05;;
64653;SDS011;51065;48.884;12.598;2023-04-24T08:03:12;2.22;;;1.27;;
64653;SDS011;51065;48.884;12.598;2023-04-24T08:05:38;1.40;;;0.90;;
64653;SDS011;51065;48.884;12.598;2023-04-24T08:08:03;5.30;;;1.10;;
64653;SDS011;51065;48.884;12.598;2023-04-24T08:10:29;2.35;;;1.10;;
64653;SDS011;51065;48.884;12.598;2023-04-24T08:12:55;1.90;;;1.10;;
64653;SDS011;51065;48.884;12.598;2023-04-24T08:15:21;3.45;;;1.00;;
64653;SDS011;51065;48.884;12.598;2023-04-24T08:17:46;1.42;;;1.10;;
64653;SDS011;51065;48.884;12.598;2023-04-24T08:20:12;1.70;;;1.10;;
64653;SDS011;51065;48.884;12.598;2023-04-24T08:22:41;2.45;;;1.15;;
64653;SDS011;51065;48.884;12.598;2023-04-24T08:25:08;1.65;;;1.15;;
64653;SDS011;51065;48.884;12.598;2023-04-24T08:27:35;1.83;;;1.10;;
64653;SDS011;51065;48.884;12.598;2023-04-24T08:30:02;1.35;;;1.08;;
64653;SDS011;51065;48.884;12.598;2023-04-24T08:32:28;2.50;;;1.40;;
64653;SDS011;51065;48.884;12.598;2023-04-24T08:34:54;2.92;;;1.77;;
64653;SDS011;51065;48.884;12.598;2023-04-24T08:37:21;3.10;;;1.17;;
64653;SDS011;51065;48.884;12.598;2023-04-24T08:39:50;7.13;;;1.40;;
64653;SDS011;51065;48.884;12.598;2023-04-24T08:42:16;2.63;;;1.55;;
64653;SDS011;51065;48.884;12.598;2023-04-24T08:44:43;3.20;;;1.25;;
64653;SDS011;51065;48.884;12.598;2023-04-24T08:47:09;2.42;;;1.00;;
64653;SDS011;51065;48.884;12.598;2023-04-24T08:49:36;2.92;;;1.27;;
64653;SDS011;51065;48.884;12.598;2023-04-24T08:52:03;2.45;;;1.20;;
64653;SDS011;51065;48.884;12.598;2023-04-24T08:54:30;1.98;;;1.25;;
64653;SDS011;51065;48.884;12.598;2023-04-24T08:57:00;3.03;;;1.35;;
64653;SDS011;51065;48.884;12.598;2023-04-24T08:59:28;4.03;;;1.33;;
64653;SDS011;51065;48.884;12.598;2023-04-24T09:01:55;3.72;;;1.67;;
64653;SDS011;51065;48.884;12.598;2023-04-24T09:04:21;2.75;;;1.50;;
64653;SDS011;51065;48.884;12.598;2023-04-24T09:06:49;1.55;;;1.05;;
64653;SDS011;51065;48.884;12.598;2023-04-24T09:09:22;2.83;;;1.40;;
64653;SDS011;51065;48.884;12.598;2023-04-24T09:11:51;1.80;;;1.23;;
64653;SDS011;51065;48.884;12.598;2023-04-24T09:14:20;2.17;;;1.27;;
64653;SDS011;51065;48.884;12.598;2023-04-24T09:16:46;1.63;;;1.05;;
64653;SDS011;51065;48.884;12.598;2023-04-24T09:19:13;3.22;;;1.23;;
64653;SDS011;51065;48.884;12.598;2023-04-24T09:21:38;1.35;;;1.10;;
64653;SDS011;51065;48.884;12.598;2023-04-24T09:24:07;1.67;;;1.20;;
64653;SDS011;51065;48.884;12.598;2023-04-24T09:26:39;2.50;;;1.48;;
64653;SDS011;51065;48.884;12.598;2023-04-24T09:29:05;2.97;;;1.58;;
64653;SDS011;51065;48.884;12.598;2023-04-24T09:31:31;4.47;;;1.30;;
64653;SDS011;51065;48.884;12.598;2023-04-24T09:34:00;2.85;;;0.77;;
64653;SDS011;51065;48.884;12.598;2023-04-24T09:38:58;1.52;;;0.57;;
64653;SDS011;51065;48.884;12.598;2023-04-24T09:41:24;1.42;;;0.68;;
64653;SDS011;51065;48.884;12.598;2023-04-24T09:43:51;3.03;;;1.10;;
64653;SDS011;51065;48.884;12.598;2023-04-24T09:46:19;2.78;;;0.60;;
64653;SDS011;51065;48.884;12.598;2023-04-24T09:48:46;5.90;;;1.55;;
64653;SDS011;51065;48.884;12.598;2023-04-24T09:51:11;1.48;;;0.95;;
64653;SDS011;51065;48.884;12.598;2023-04-24T09:53:37;3.38;;;0.70;;
64653;SDS011;51065;48.884;12.598;2023-04-24T09:56:08;1.33;;;0.90;;
64653;SDS011;51065;48.884;12.598;2023-04-24T09:58:35;1.33;;;0.80;;
64653;SDS011;51065;48.884;12.598;2023-04-24T10:01:01;2.05;;;0.75;;
64653;SDS011;51065;48.884;12.598;2023-04-24T10:03:29;1.83;;;0.68;;
64653;SDS011;51065;48.884;12.598;2023-04-24T10:05:58;2.15;;;0.73;;
64653;SDS011;51065;48.884;12.598;2023-04-24T10:08:32;1.88;;;0.93;;
64653;SDS011;51065;48.884;12.598;2023-04-24T10:10:59;2.70;;;0.90;;
64653;SDS011;51065;48.884;12.598;2023-04-24T10:13:25;2.72;;;0.85;;
64653;SDS011;51065;48.884;12.598;2023-04-24T10:15:51;1.90;;;1.10;;
64653;SDS011;51065;48.884;12.598;2023-04-24T10:18:17;4.45;;;1.80;;
64653;SDS011;51065;48.884;12.598;2023-04-24T10:20:44;1.60;;;0.93;;
64653;SDS011;51065;48.884;12.598;2023-04-24T10:23:10;2.83;;;0.80;;
64653;SDS011;51065;48.884;12.598;2023-04-24T10:25:36;1.50;;;0.80;;
64653;SDS011;51065;48.884;12.598;2023-04-24T10:28:02;1.27;;;0.70;;
64653;SDS011;51065;48.884;12.598;2023-04-24T10:30:30;1.60;;;0.80;;
64653;SDS011;51065;48.884;12.598;2023-04-24T10:32:59;1.98;;;0.70;;
64653;SDS011;51065;48.884;12.598;2023-04-24T10:35:33;4.50;;;0.83;;
64653;SDS011;51065;48.884;12.598;2023-04-24T10:38:06;3.45;;;0.50;;
64653;SDS011;51065;48.884;12.598;2023-04-24T10:40:36;3.15;;;0.75;;
64653;SDS011;51065;48.884;12.598;2023-04-24T10:43:03;1.70;;;0.73;;
64653;SDS011;51065;48.884;12.598;2023-04-24T10:45:33;1.08;;;0.80;;
64653;SDS011;51065;48.884;12.598;2023-04-24T10:48:03;4.72;;;1.05;;
64653;SDS011;51065;48.884;12.598;2023-04-24T10:53:12;1.33;;;0.82;;
64653;SDS011;51065;48.884;12.598;2023-04-24T10:55:40;3.50;;;0.82;;
64653;SDS011;51065;48.884;12.598;2023-04-24T10:58:08;5.85;;;1.08;;
64653;SDS011;51065;48.884;12.598;2023-04-24T11:00:35;5.75;;;1.00;;
64653;SDS011;51065;48.884;12.598;2023-04-24T11:03:04;1.52;;;0.90;;
64653;SDS011;51065;48.884;12.598;2023-04-24T11:05:52;1.10;;;0.80;;
64653;SDS011;51065;48.884;12.598;2023-04-24T11:10:57;0.80;;;0.70;;
64653;SDS011;51065;48.884;12.598;2023-04-24T11:21:45;1.15;;;0.70;;
64653;SDS011;51065;48.884;12.598;2023-04-24T11:24:23;1.75;;;1.30;;
64653;SDS011;51065;48.884;12.598;2023-04-24T11:32:18;2.45;;;0.90;;
64653;SDS011;51065;48.884;12.598;2023-04-24T11:34:49;1.02;;;0.80;;
64653;SDS011;51065;48.884;12.598;2023-04-24T11:37:16;1.92;;;0.90;;
64653;SDS011;51065;48.884;12.598;2023-04-24T11:39:41;2.45;;;0.80;;
64653;SDS011;51065;48.884;12.598;2023-04-24T11:42:08;1.00;;;0.60;;
64653;SDS011;51065;48.884;12.598;2023-04-24T11:44:34;2.03;;;0.90;;
64653;SDS011;51065;48.884;12.598;2023-04-24T11:47:02;3.53;;;0.80;;
64653;SDS011;51065;48.884;12.598;2023-04-24T11:49:29;2.03;;;0.68;;
64653;SDS011;51065;48.884;12.598;2023-04-24T11:51:55;2.38;;;0.75;;
64653;SDS011;51065;48.884;12.598;2023-04-24T11:54:21;1.23;;;0.70;;
64653;SDS011;51065;48.884;12.598;2023-04-24T11:56:47;2.15;;;0.82;;
64653;SDS011;51065;48.884;12.598;2023-04-24T11:59:14;2.42;;;0.85;;
64653;SDS011;51065;48.884;12.598;2023-04-24T12:01:43;2.60;;;0.88;;
64653;SDS011;51065;48.884;12.598;2023-04-24T12:04:10;4.28;;;0.90;;
64653;SDS011;51065;48.884;12.598;2023-04-24T12:06:36;2.05;;;0.82;;
64653;SDS011;51065;48.884;12.598;2023-04-24T12:09:01;1.02;;;0.80;;
64653;SDS011;51065;48.884;12.598;2023-04-24T12:11:27;4.15;;;1.00;;
64653;SDS011;51065;48.884;12.598;2023-04-24T12:13:53;9.60;;;1.45;;
64653;SDS011;51065;48.884;12.598;2023-04-24T12:16:19;2.97;;;0.90;;
64653;SDS011;51065;48.884;12.598;2023-04-24T12:18:45;2.90;;;0.77;;
64653;SDS011;51065;48.884;12.598;2023-04-24T12:21:18;1.63;;;0.80;;
64653;SDS011;51065;48.884;12.598;2023-04-24T12:23:45;1.58;;;0.80;;
64653;SDS011;51065;48.884;12.598;2023-04-24T12:26:11;2.53;;;1.20;;
64653;SDS011;51065;48.884;12.598;2023-04-24T12:28:48;3.67;;;1.42;;
64653;SDS011;51065;48.884;12.598;2023-04-24T12:31:15;4.05;;;1.13;;
64653;SDS011;51065;48.884;12.598;2023-04-24T12:33:41;1.67;;;1.00;;
64653;SDS011;51065;48.884;12.598;2023-04-24T12:36:09;1.27;;;1.00;;
64653;SDS011;51065;48.884;12.598;2023-04-24T12:38:37;2.42;;;0.98;;
64653;SDS011;51065;48.884;12.598;2023-04-24T12:43:32;2.00;;;1.00;;
64653;SDS011;51065;48.884;12.598;2023-04-24T12:45:58;1.83;;;1.00;;
64653;SDS011;51065;48.884;12.598;2023-04-24T12:48:25;0.82;;;0.80;;
64653;SDS011;51065;48.884;12.598;2023-04-24T12:50:51;1.30;;;0.90;;
64653;SDS011;51065;48.884;12.598;2023-04-24T12:53:16;1.58;;;1.02;;
64653;SDS011;51065;48.884;12.598;2023-04-24T12:55:42;1.73;;;0.90;;
64653;SDS011;51065;48.884;12.598;2023-04-24T12:58:09;1.27;;;0.68;;
64653;SDS011;51065;48.884;12.598;2023-04-24T13:00:35;1.55;;;0.60;;
64653;SDS011;51065;48.884;12.598;2023-04-24T13:03:01;1.35;;;0.70;;
64653;SDS011;51065;48.884;12.598;2023-04-24T13:05:26;2.60;;;0.93;;
64653;SDS011;51065;48.884;12.598;2023-04-24T13:07:52;1.10;;;0.77;;
64653;SDS011;51065;48.884;12.598;2023-04-24T13:10:18;1.67;;;0.95;;
64653;SDS011;51065;48.884;12.598;2023-04-24T13:12:44;1.30;;;0.88;;
64653;SDS011;51065;48.884;12.598;2023-04-24T13:15:11;2.60;;;1.00;;
64653;SDS011;51065;48.884;12.598;2023-04-24T13:17:37;2.13;;;0.90;;
64653;SDS011;51065;48.884;12.598;2023-04-24T13:20:03;1.10;;;0.90;;
64653;SDS011;51065;48.884;12.598;2023-04-24T13:22:28;0.88;;;0.77;;
64653;SDS011;51065;48.884;12.598;2023-04-24T13:24:54;1.40;;;0.88;;
64653;SDS011;51065;48.884;12.598;2023-04-24T13:27:21;2.75;;;1.02;;
64653;SDS011;51065;48.884;12.598;2023-04-24T13:29:46;0.95;;;0.70;;
64653;SDS011;51065;48.884;12.598;2023-04-24T13:32:12;1.73;;;0.95;;
64653;SDS011;51065;48.884;12.598;2023-04-24T13:34:38;1.98;;;1.05;;
64653;SDS011;51065;48.884;12.598;2023-04-24T13:37:04;1.55;;;1.15;;
64653;SDS011;51065;48.884;12.598;2023-04-24T13:39:30;2.50;;;1.20;;
64653;SDS011;51065;48.884;12.598;2023-04-24T13:41:56;1.70;;;1.10;;
64653;SDS011;51065;48.884;12.598;2023-04-24T13:44:22;2.38;;;1.05;;
64653;SDS011;51065;48.884;12.598;2023-04-24T13:46:49;1.90;;;1.23;;
64653;SDS011;51065;48.884;12.598;2023-04-24T13:49:18;8.80;;;1.60;;
64653;SDS011;51065;48.884;12.598;2023-04-24T13:51:45;1.67;;;0.98;;
64653;SDS011;51065;48.884;12.598;2023-04-24T13:54:11;4.38;;;1.23;;
64653;SDS011;51065;48.884;12.598;2023-04-24T13:56:36;2.70;;;1.00;;
64653;SDS011;51065;48.884;12.598;2023-04-24T13:59:02;2.03;;;1.10;;
64653;SDS011;51065;48.884;12.598;2023-04-24T14:01:27;2.47;;;1.20;;
64653;SDS011;51065;48.884;12.598;2023-04-24T14:03:53;2.35;;;1.17;;
64653;SDS011;51065;48.884;12.598;2023-04-24T14:06:20;1.88;;;0.88;;
64653;SDS011;51065;48.884;12.598;2023-04-24T14:08:46;4.43;;;0.98;;
64653;SDS011;51065;48.884;12.598;2023-04-24T14:11:12;3.58;;;0.85;;
64653;SDS011;51065;48.884;12.598;2023-04-24T14:13:39;0.70;;;0.70;;
64653;SDS011;51065;48.884;12.598;2023-04-24T14:16:06;3.28;;;0.80;;
64653;SDS011;51065;48.884;12.598;2023-04-24T14:18:31;0.88;;;0.63;;
64653;SDS011;51065;48.884;12.598;2023-04-24T14:20:57;1.58;;;0.77;;
64653;SDS011;51065;48.884;12.598;2023-04-24T14:23:23;1.40;;;0.68;;
64653;SDS011;51065;48.884;12.598;2023-04-24T14:25:49;1.35;;;0.85;;
64653;SDS011;51065;48.884;12.598;2023-04-24T14:28:17;3.65;;;1.02;;
64653;SDS011;51065;48.884;12.598;2023-04-24T14:30:43;0.88;;;0.80;;
64653;SDS011;51065;48.884;12.598;2023-04-24T14:33:09;1.10;;;0.70;;
64653;SDS011;51065;48.884;12.598;2023-04-24T14:35:35;0.65;;;0.55;;
64653;SDS011;51065;48.884;12.598;2023-04-24T14:38:01;1.65;;;0.65;;
64653;SDS011;51065;48.884;12.598;2023-04-24T14:40:27;2.78;;;1.00;;
64653;SDS011;51065;48.884;12.598;2023-04-24T14:42:53;1.63;;;0.75;;
64653;SDS011;51065;48.884;12.598;2023-04-24T14:45:18;2.65;;;1.02;;
64653;SDS011;51065;48.884;12.598;2023-04-24T14:47:44;1.23;;;0.80;;
64653;SDS011;51065;48.884;12.598;2023-04-24T14:50:10;1.15;;;0.70;;
64653;SDS011;51065;48.884;12.598;2023-04-24T14:52:37;1.08;;;0.70;;